createdAt,value
2019-01-31T00:01:06.612Z,2.10
2019-01-31T00:19:34.519Z,2.17
2019-01-31T00:26:45.693Z,1.60
2019-01-31T00:37:40.462Z,1.57
2019-01-31T00:45:01.560Z,1.40
2019-01-31T00:59:50.076Z,1.30
2019-01-31T01:03:29.142Z,1.10
2019-01-31T01:14:43.481Z,1.20
2019-01-31T01:17:59.920Z,1.07
2019-01-31T01:21:47.406Z,1.20
2019-01-31T01:28:29.713Z,1.07
2019-01-31T01:43:24.425Z,1.20
2019-01-31T01:54:11.550Z,1.53
2019-01-31T01:58:08.847Z,1.50
2019-01-31T02:01:37.467Z,1.53
2019-01-31T02:04:55.807Z,1.80
2019-01-31T02:08:08.779Z,1.60
2019-01-31T02:11:33.039Z,1.90
2019-01-31T02:15:19.138Z,1.80
2019-01-31T02:19:02.304Z,1.83
2019-01-31T02:22:26.801Z,1.20
2019-01-31T02:25:20.898Z,1.40
2019-01-31T02:37:15.462Z,1.10
2019-01-31T02:40:09.926Z,1.30
2019-01-31T02:43:45.206Z,1.90
2019-01-31T02:47:22.884Z,1.70
2019-01-31T02:54:30.536Z,1.40
2019-01-31T02:57:50.071Z,1.37
2019-01-31T03:08:15.703Z,1.30
2019-01-31T03:11:39.058Z,1.27
2019-01-31T03:14:39.623Z,1.50
2019-01-31T03:18:36.120Z,1.60
2019-01-31T03:25:42.091Z,1.60
2019-01-31T03:33:04.148Z,2.47
2019-01-31T03:40:07.146Z,2.43
2019-01-31T03:54:19.580Z,1.37
2019-01-31T03:57:27.141Z,1.73
2019-01-31T04:01:10.374Z,1.43
2019-01-31T04:04:25.450Z,1.50
2019-01-31T04:08:02.988Z,1.70
2019-01-31T04:10:38.221Z,1.70
2019-01-31T04:21:02.598Z,2.10
2019-01-31T04:31:53.590Z,2.60
2019-01-31T04:38:20.324Z,2.37
2019-01-31T04:45:26.015Z,3.27
2019-01-31T04:59:48.662Z,2.67
2019-01-31T05:07:12.318Z,4.80
2019-01-31T05:13:52.919Z,4.50
2019-01-31T05:17:28.278Z,3.43
2019-01-31T05:20:52.532Z,3.50
2019-01-31T05:23:33.619Z,2.70
2019-01-31T05:26:09.309Z,2.77
2019-01-31T05:33:37.029Z,2.30
2019-01-31T05:37:18.733Z,2.70
2019-01-31T05:39:54.478Z,3.80
2019-01-31T05:42:35.628Z,2.80
2019-01-31T05:45:45.263Z,2.50
2019-01-31T05:49:00.692Z,3.00
2019-01-31T05:51:46.151Z,2.60
2019-01-31T05:57:40.990Z,2.97
2019-01-31T06:00:38.961Z,3.30
2019-01-31T06:04:22.191Z,2.73
2019-01-31T06:07:23.283Z,9.00
2019-01-31T06:10:37.512Z,4.27
2019-01-31T06:13:11.323Z,3.20
2019-01-31T06:16:42.414Z,3.77
2019-01-31T06:19:22.279Z,3.30
2019-01-31T06:23:09.778Z,3.33
2019-01-31T06:25:40.329Z,3.07
2019-01-31T06:29:07.555Z,3.77
2019-01-31T06:32:57.262Z,3.00
2019-01-31T06:39:59.363Z,4.40
2019-01-31T06:43:13.229Z,3.53
2019-01-31T06:49:45.034Z,5.20
2019-01-31T06:52:52.321Z,5.37
2019-01-31T07:00:11.020Z,3.67
2019-01-31T07:03:39.238Z,2.70
2019-01-31T07:07:29.843Z,3.87
2019-01-31T07:14:48.373Z,4.13
2019-01-31T07:18:01.906Z,3.53
2019-01-31T07:21:24.151Z,3.70
2019-01-31T07:24:41.821Z,3.97
2019-01-31T07:28:13.846Z,3.23
2019-01-31T07:31:42.706Z,3.43
2019-01-31T07:35:07.927Z,3.50
2019-01-31T07:37:57.644Z,3.97
2019-01-31T07:40:42.385Z,4.33
2019-01-31T07:43:35.201Z,4.07
2019-01-31T07:47:12.704Z,4.10
2019-01-31T07:50:22.577Z,3.80
2019-01-31T08:05:12.168Z,7.33
2019-01-31T08:08:56.655Z,14.43
2019-01-31T08:25:45.617Z,10.00
2019-01-31T08:29:28.832Z,10.63
2019-01-31T08:36:38.092Z,5.20
2019-01-31T08:47:35.746Z,3.97
2019-01-31T08:55:07.819Z,4.27
2019-01-31T09:02:44.981Z,3.60
2019-01-31T09:17:32.389Z,3.43
2019-01-31T09:32:05.966Z,3.67
2019-01-31T09:35:19.520Z,3.73
2019-01-31T09:38:45.557Z,3.93
2019-01-31T09:42:01.884Z,3.07
2019-01-31T09:45:51.304Z,3.10
2019-01-31T09:49:27.608Z,3.77
2019-01-31T09:53:03.546Z,3.23
2019-01-31T09:56:44.685Z,4.67
2019-01-31T10:00:11.542Z,2.90
2019-01-31T10:03:46.455Z,3.17
2019-01-31T10:07:31.443Z,2.90
2019-01-31T10:11:09.038Z,3.37
2019-01-31T10:15:00.598Z,3.53
2019-01-31T10:22:27.842Z,2.80
2019-01-31T10:30:15.132Z,2.50
2019-01-31T10:34:04.829Z,2.57
2019-01-31T10:37:46.087Z,3.00
2019-01-31T10:45:43.016Z,2.80
2019-01-31T11:01:39.344Z,2.03
2019-01-31T11:05:10.911Z,2.73
2019-01-31T11:13:00.675Z,1.83
2019-01-31T11:16:32.753Z,2.23
2019-01-31T11:19:38.536Z,2.50
2019-01-31T11:27:08.275Z,2.90
2019-01-31T11:30:34.461Z,2.80
2019-01-31T11:33:49.478Z,1.97
2019-01-31T11:37:28.462Z,1.80
2019-01-31T11:40:49.883Z,2.00
2019-01-31T11:44:09.113Z,2.53
2019-01-31T11:47:03.361Z,2.50
2019-01-31T11:50:01.240Z,2.50
2019-01-31T11:53:13.155Z,2.30
2019-01-31T11:57:05.565Z,2.30
2019-01-31T12:04:10.868Z,2.07
2019-01-31T12:07:47.529Z,2.07
2019-01-31T12:11:19.340Z,1.77
2019-01-31T12:19:08.941Z,2.23
2019-01-31T12:29:02.105Z,2.23
2019-01-31T12:31:45.040Z,2.50
2019-01-31T12:34:50.745Z,2.50
2019-01-31T12:37:30.138Z,1.90
2019-01-31T12:40:39.703Z,1.57
2019-01-31T12:44:07.305Z,2.10
2019-01-31T12:47:14.342Z,2.17
2019-01-31T12:54:08.295Z,1.50
2019-01-31T12:57:30.207Z,1.60
2019-01-31T13:00:54.004Z,2.30
2019-01-31T13:03:37.047Z,1.63
2019-01-31T13:06:24.081Z,5.87
2019-01-31T13:09:03.541Z,4.10
2019-01-31T13:12:18.241Z,2.00
2019-01-31T13:16:08.698Z,1.90
2019-01-31T13:19:00.179Z,1.57
2019-01-31T13:36:49.617Z,1.20
2019-01-31T13:39:25.754Z,1.80
2019-01-31T13:42:34.291Z,1.47
2019-01-31T13:53:49.919Z,1.23
2019-01-31T13:59:54.340Z,1.63
2019-01-31T14:03:05.931Z,1.40
2019-01-31T14:06:06.802Z,1.60
2019-01-31T14:08:45.265Z,1.50
2019-01-31T14:11:20.023Z,1.53
2019-01-31T14:13:55.727Z,1.60
2019-01-31T14:16:46.565Z,1.53
2019-01-31T14:22:48.736Z,1.50
2019-01-31T14:25:33.039Z,1.57
2019-01-31T14:28:56.854Z,2.20
2019-01-31T14:32:08.353Z,1.70
2019-01-31T14:34:45.195Z,2.03
2019-01-31T14:38:04.571Z,1.87
2019-01-31T14:40:32.652Z,1.80
2019-01-31T14:43:15.474Z,2.20
2019-01-31T14:45:57.470Z,2.03
2019-01-31T14:48:29.767Z,2.83
2019-01-31T14:51:03.230Z,2.87
2019-01-31T14:53:48.737Z,3.23
2019-01-31T14:56:39.265Z,1.60
2019-01-31T14:59:30.662Z,1.30
2019-01-31T15:02:18.388Z,5.87
2019-01-31T15:05:04.476Z,4.80
2019-01-31T15:07:37.308Z,2.70
2019-01-31T15:10:15.101Z,1.87
2019-01-31T15:13:04.722Z,2.30
2019-01-31T15:15:47.181Z,1.80
2019-01-31T15:18:30.450Z,1.83
2019-01-31T15:21:19.654Z,1.90
2019-01-31T15:24:06.031Z,1.50
2019-01-31T15:26:54.441Z,1.77
2019-01-31T15:29:46.156Z,2.47
2019-01-31T15:32:35.685Z,1.80
2019-01-31T15:35:08.648Z,2.60
2019-01-31T15:38:04.828Z,3.30
2019-01-31T15:40:44.265Z,3.67
2019-01-31T15:43:20.625Z,5.50
2019-01-31T15:45:59.565Z,5.07
2019-01-31T15:48:39.103Z,3.87
2019-01-31T15:51:09.278Z,4.00
2019-01-31T15:53:52.993Z,3.63
2019-01-31T15:56:24.175Z,3.40
2019-01-31T15:58:55.115Z,3.90
2019-01-31T16:01:26.380Z,3.77
2019-01-31T16:04:02.728Z,3.40
2019-01-31T16:06:47.543Z,3.87
2019-01-31T16:09:25.707Z,4.60
2019-01-31T16:12:28.549Z,5.33
2019-01-31T16:15:13.872Z,5.93
2019-01-31T16:17:46.494Z,6.83
2019-01-31T16:20:33.868Z,5.97
2019-01-31T16:23:32.047Z,4.43
2019-01-31T16:26:23.089Z,3.70
2019-01-31T16:29:18.454Z,3.60
2019-01-31T16:32:16.986Z,2.77
2019-01-31T16:35:04.414Z,3.67
2019-01-31T16:38:09.609Z,3.30
2019-01-31T16:40:39.381Z,2.70
2019-01-31T16:43:18.922Z,3.03
2019-01-31T16:46:16.106Z,3.20
2019-01-31T16:49:01.750Z,4.77
2019-01-31T16:51:46.621Z,4.23
2019-01-31T16:54:39.461Z,3.10
2019-01-31T16:57:25.607Z,2.50
2019-01-31T17:00:18.317Z,2.10
2019-01-31T17:03:07.405Z,2.20
2019-01-31T17:06:02.096Z,2.70
2019-01-31T17:08:49.807Z,2.47
2019-01-31T17:11:42.091Z,2.20
2019-01-31T17:14:33.853Z,3.07
2019-01-31T17:17:18.517Z,2.90
2019-01-31T17:20:17.785Z,2.57
2019-01-31T17:22:58.692Z,2.20
2019-01-31T17:25:53.295Z,2.23
2019-01-31T17:28:49.147Z,2.27
2019-01-31T17:31:34.600Z,3.13
2019-01-31T17:34:19.926Z,2.53
2019-01-31T17:37:06.564Z,2.60
2019-01-31T17:39:38.909Z,2.07
2019-01-31T17:42:43.699Z,2.17
2019-01-31T17:45:41.214Z,4.57
2019-01-31T17:48:48.892Z,9.00
2019-01-31T17:51:39.812Z,9.50
2019-01-31T17:54:35.952Z,7.47
2019-01-31T17:57:22.591Z,6.83
2019-01-31T18:00:06.928Z,6.60
2019-01-31T18:03:04.902Z,7.37
2019-01-31T18:05:49.581Z,10.23
2019-01-31T18:08:51.798Z,9.07
2019-01-31T18:11:43.069Z,7.27
2019-01-31T18:14:31.266Z,6.87
2019-01-31T18:17:27.800Z,7.83
2019-01-31T18:20:25.251Z,5.40
2019-01-31T18:23:31.922Z,7.30
2019-01-31T18:26:24.980Z,6.63
2019-01-31T18:29:05.200Z,5.50
2019-01-31T18:32:00.274Z,5.70
2019-01-31T18:34:59.582Z,9.10
2019-01-31T18:37:53.778Z,9.40
2019-01-31T18:40:48.020Z,8.43
2019-01-31T18:43:34.510Z,9.30
2019-01-31T18:46:44.463Z,8.53
2019-01-31T18:49:42.662Z,7.97
2019-01-31T18:52:35.694Z,8.90
2019-01-31T18:55:29.785Z,7.73
2019-01-31T18:58:19.117Z,8.20
2019-01-31T19:01:19.345Z,8.47
2019-01-31T19:04:22.925Z,7.03
2019-01-31T19:07:06.498Z,6.87
2019-01-31T19:10:01.231Z,7.50
2019-01-31T19:13:06.522Z,9.47
2019-01-31T19:16:05.781Z,9.03
2019-01-31T19:18:56.562Z,8.07
2019-01-31T19:21:47.704Z,7.47
2019-01-31T19:24:38.809Z,8.20
2019-01-31T19:27:40.618Z,7.83
2019-01-31T19:30:19.044Z,10.07
2019-01-31T19:33:26.426Z,8.63
2019-01-31T19:36:02.699Z,8.60
2019-01-31T19:38:47.655Z,7.40
2019-01-31T19:41:30.613Z,10.27
2019-01-31T19:44:07.453Z,8.77
2019-01-31T19:46:56.643Z,8.90
2019-01-31T19:49:52.439Z,7.40
2019-01-31T19:52:40.510Z,8.33
2019-01-31T19:55:49.353Z,7.67
2019-01-31T19:58:54.449Z,9.53
2019-01-31T20:01:43.067Z,8.10
2019-01-31T20:04:42.925Z,10.63
2019-01-31T20:07:36.725Z,13.93
2019-01-31T20:10:31.656Z,14.37
2019-01-31T20:13:29.200Z,17.90
2019-01-31T20:16:29.270Z,14.43
2019-01-31T20:19:13.982Z,19.50
2019-01-31T20:22:02.947Z,18.73
2019-01-31T20:24:57.754Z,15.83
2019-01-31T20:27:45.014Z,11.00
2019-01-31T20:30:32.025Z,10.87
2019-01-31T20:33:17.826Z,9.00
2019-01-31T20:35:59.834Z,10.00
2019-01-31T20:39:01.275Z,9.30
2019-01-31T20:41:54.387Z,9.17
2019-01-31T20:44:41.847Z,9.70
2019-01-31T20:47:36.820Z,9.30
2019-01-31T20:50:37.637Z,9.17
2019-01-31T20:53:18.269Z,9.17
2019-01-31T20:56:09.348Z,9.83
2019-01-31T20:58:57.058Z,10.47
2019-01-31T21:01:55.371Z,10.43
2019-01-31T21:05:00.311Z,14.57
2019-01-31T21:07:57.368Z,16.67
2019-01-31T21:10:45.072Z,13.23
2019-01-31T21:13:48.430Z,12.03
2019-01-31T21:16:51.468Z,11.23
2019-01-31T21:19:30.720Z,11.83
2019-01-31T21:22:32.041Z,12.47
2019-01-31T21:25:16.401Z,11.60
2019-01-31T21:27:55.595Z,13.87
2019-01-31T21:30:47.308Z,11.73
2019-01-31T21:33:50.289Z,11.43
2019-01-31T21:36:39.130Z,12.07
2019-01-31T21:39:40.608Z,10.80
2019-01-31T21:42:44.311Z,12.13
2019-01-31T21:45:26.893Z,14.03
2019-01-31T21:48:20.473Z,13.67
2019-01-31T21:51:05.556Z,12.80
2019-01-31T21:53:46.860Z,12.93
2019-01-31T21:56:45.465Z,12.30
2019-01-31T21:59:37.725Z,12.10
2019-01-31T22:02:35.492Z,13.27
2019-01-31T22:05:26.275Z,15.47
2019-01-31T22:08:16.048Z,14.67
2019-01-31T22:11:12.719Z,12.07
2019-01-31T22:14:03.697Z,13.70
2019-01-31T22:16:35.703Z,14.53
2019-01-31T22:19:44.401Z,15.03
2019-01-31T22:22:25.065Z,13.47
2019-01-31T22:24:56.806Z,13.57
2019-01-31T22:27:29.065Z,13.90
2019-01-31T22:30:01.283Z,13.17
2019-01-31T22:32:35.964Z,14.40
2019-01-31T22:35:16.512Z,13.37
2019-01-31T22:37:58.812Z,16.47
2019-01-31T22:40:57.111Z,14.43
2019-01-31T22:43:46.502Z,15.20
2019-01-31T22:46:26.395Z,14.50
2019-01-31T22:49:11.041Z,16.73
2019-01-31T22:51:55.051Z,15.40
2019-01-31T22:54:47.596Z,16.50
2019-01-31T22:57:39.286Z,14.90
2019-01-31T23:01:11.362Z,14.00
2019-01-31T23:03:49.423Z,15.53
2019-01-31T23:06:32.761Z,15.17
2019-01-31T23:09:22.038Z,15.67
2019-01-31T23:12:01.747Z,15.60
2019-01-31T23:14:41.495Z,16.10
2019-01-31T23:17:36.749Z,15.00
2019-01-31T23:20:02.913Z,13.83
2019-01-31T23:22:46.212Z,14.43
2019-01-31T23:25:19.422Z,16.83
2019-01-31T23:28:07.284Z,13.77
2019-01-31T23:30:57.380Z,13.67
2019-01-31T23:33:28.466Z,14.27
2019-01-31T23:36:07.001Z,14.73
2019-01-31T23:38:51.424Z,16.70
2019-01-31T23:41:42.642Z,15.37
2019-01-31T23:44:35.149Z,15.77
2019-01-31T23:47:07.426Z,18.40
2019-01-31T23:50:40.882Z,17.40
2019-01-31T23:53:41.271Z,19.00
2019-01-31T23:56:29.191Z,17.13
2019-01-31T23:59:10.691Z,16.50
